createdAt,value
2022-09-04T00:00:53.709Z,50.885586
2022-09-04T00:01:53.767Z,50.885597
2022-09-04T00:02:53.694Z,50.885609
2022-09-04T00:03:53.781Z,50.885632
2022-09-04T00:04:53.826Z,50.885616
2022-09-04T00:05:54.675Z,50.885639
2022-09-04T00:06:53.667Z,50.885605
2022-09-04T00:07:53.675Z,50.885605
2022-09-04T00:08:53.665Z,50.885574
2022-09-04T00:09:53.672Z,50.885525
2022-09-04T00:10:53.658Z,50.885563
2022-09-04T00:11:53.640Z,50.885628
2022-09-04T00:12:53.646Z,50.885609
2022-09-04T00:13:54.622Z,50.885597
2022-09-04T00:14:53.655Z,50.885597
2022-09-04T00:15:53.607Z,50.885597
2022-09-04T00:16:53.689Z,50.885586
2022-09-04T00:17:53.605Z,50.885513
2022-09-04T00:18:53.610Z,50.885540
2022-09-04T00:19:53.600Z,50.885597
2022-09-04T00:20:53.800Z,50.885590
2022-09-04T00:21:53.577Z,50.885597
2022-09-04T00:22:53.586Z,50.885651
2022-09-04T00:23:53.560Z,50.885616
2022-09-04T00:24:53.563Z,50.885586
2022-09-04T00:25:53.574Z,50.885559
2022-09-04T00:26:53.557Z,50.885574
2022-09-04T00:27:53.541Z,50.885574
2022-09-04T00:28:53.533Z,50.885506
2022-09-04T00:29:53.539Z,50.885563
2022-09-04T00:30:53.549Z,50.885567
2022-09-04T00:31:53.656Z,50.885540
2022-09-04T00:32:53.510Z,50.885513
2022-09-04T00:33:53.487Z,50.885471
2022-09-04T00:34:53.501Z,50.885559
2022-09-04T00:35:53.499Z,50.885605
2022-09-04T00:36:53.506Z,50.885677
2022-09-04T00:37:53.489Z,50.885571
2022-09-04T00:38:53.478Z,50.885551
2022-09-04T00:39:53.498Z,50.885567
2022-09-04T00:40:53.470Z,50.885590
2022-09-04T00:41:53.452Z,50.885586
2022-09-04T00:42:53.477Z,50.885609
2022-09-04T00:43:53.440Z,50.885639
2022-09-04T00:44:53.451Z,50.885559
2022-09-04T00:45:53.491Z,50.885548
2022-09-04T00:46:53.414Z,50.885601
2022-09-04T00:47:53.438Z,50.885536
2022-09-04T00:48:53.411Z,50.885487
2022-09-04T00:49:53.399Z,50.885571
2022-09-04T00:50:53.395Z,50.885490
2022-09-04T00:51:53.401Z,50.885468
2022-09-04T00:52:56.635Z,50.885574
2022-09-04T00:53:53.511Z,50.885651
2022-09-04T00:54:53.381Z,50.885563
2022-09-04T00:55:53.363Z,50.885277
2022-09-04T00:56:53.371Z,50.885246
2022-09-04T00:57:53.376Z,50.885334
2022-09-04T00:58:53.385Z,50.885555
2022-09-04T00:59:53.405Z,50.885277
2022-09-04T01:00:53.391Z,50.885174
2022-09-04T01:01:53.526Z,50.884953
2022-09-04T01:02:53.331Z,50.884846
2022-09-04T01:03:53.323Z,50.885433
2022-09-04T01:04:53.425Z,50.885300
2022-09-04T01:05:53.313Z,50.885540
2022-09-04T01:06:53.310Z,50.885410
2022-09-04T01:07:53.311Z,50.885441
2022-09-04T01:08:56.307Z,50.885529
2022-09-04T01:09:53.310Z,50.885548
2022-09-04T01:10:53.274Z,50.885376
2022-09-04T01:11:53.279Z,50.885288
2022-09-04T01:12:53.266Z,50.885395
2022-09-04T01:13:53.262Z,50.885609
2022-09-04T01:14:53.417Z,50.885654
2022-09-04T01:15:53.347Z,50.885536
2022-09-04T01:16:53.271Z,50.885521
2022-09-04T01:17:53.247Z,50.885601
2022-09-04T01:18:53.229Z,50.885628
2022-09-04T01:19:53.212Z,50.885582
2022-09-04T01:20:53.240Z,50.885548
2022-09-04T01:21:53.217Z,50.885498
2022-09-04T01:22:53.212Z,50.885571
2022-09-04T01:23:53.199Z,50.885590
2022-09-04T01:24:53.216Z,50.885612
2022-09-04T01:25:53.192Z,50.885597
2022-09-04T01:26:53.199Z,50.885605
2022-09-04T01:27:53.183Z,50.885601
2022-09-04T01:28:53.169Z,50.885567
2022-09-04T01:29:53.152Z,50.885574
2022-09-04T01:30:53.147Z,50.885624
2022-09-04T01:31:53.225Z,50.885578
2022-09-04T01:32:53.170Z,50.885643
2022-09-04T01:33:53.152Z,50.885674
2022-09-04T01:34:53.133Z,50.885708
2022-09-04T01:35:53.138Z,50.885632
2022-09-04T01:36:53.114Z,50.885681
2022-09-04T01:37:53.226Z,50.885593
2022-09-04T01:38:53.098Z,50.885582
2022-09-04T01:39:53.136Z,50.885563
2022-09-04T01:40:53.097Z,50.885609
2022-09-04T01:41:53.096Z,50.885601
2022-09-04T01:42:53.080Z,50.885681
2022-09-04T01:43:53.106Z,50.885628
2022-09-04T01:44:53.074Z,50.885620
2022-09-04T01:45:53.295Z,50.885643
2022-09-04T01:46:53.060Z,50.885658
2022-09-04T01:47:53.059Z,50.885590
2022-09-04T01:48:53.060Z,50.885635
2022-09-04T01:49:53.055Z,50.885597
2022-09-04T01:50:53.045Z,50.885624
2022-09-04T01:51:53.034Z,50.885647
2022-09-04T01:52:53.036Z,50.885666
2022-09-04T01:53:53.059Z,50.885605
2022-09-04T01:54:53.000Z,50.885639
2022-09-04T01:55:53.014Z,50.885632
2022-09-04T01:56:52.994Z,50.885643
2022-09-04T01:57:53.003Z,50.885616
2022-09-04T01:58:52.994Z,50.885612
2022-09-04T01:59:53.807Z,50.885635
2022-09-04T02:00:53.682Z,50.885601
2022-09-04T02:01:53.987Z,50.885696
2022-09-04T02:02:53.394Z,50.885666
2022-09-04T02:03:52.953Z,50.885624
2022-09-04T02:04:52.985Z,50.885685
2022-09-04T02:05:52.958Z,50.885647
2022-09-04T02:06:52.931Z,50.885681
2022-09-04T02:07:52.931Z,50.885609
2022-09-04T02:08:52.938Z,50.885654
2022-09-04T02:09:54.011Z,50.885616
2022-09-04T02:10:53.008Z,50.885616
2022-09-04T02:11:57.068Z,50.885624
2022-09-04T02:12:52.898Z,50.885555
2022-09-04T02:13:52.902Z,50.885605
2022-09-04T02:14:52.899Z,50.885597
2022-09-04T02:15:52.897Z,50.885624
2022-09-04T02:16:52.869Z,50.885567
2022-09-04T02:17:52.875Z,50.885666
2022-09-04T02:18:52.865Z,50.885609
2022-09-04T02:19:52.858Z,50.885712
2022-09-04T02:20:52.842Z,50.885517
2022-09-04T02:21:52.961Z,50.885563
2022-09-04T02:22:52.822Z,50.885593
2022-09-04T02:23:52.835Z,50.885612
2022-09-04T02:24:52.844Z,50.885597
2022-09-04T02:25:52.824Z,50.885662
2022-09-04T02:26:52.846Z,50.885700
2022-09-04T02:27:52.811Z,50.885590
2022-09-04T02:28:52.820Z,50.885643
2022-09-04T02:29:52.799Z,50.885574
2022-09-04T02:30:54.529Z,50.885624
2022-09-04T02:31:52.857Z,50.885574
2022-09-04T02:32:52.821Z,50.885597
2022-09-04T02:33:52.777Z,50.885612
2022-09-04T02:34:52.762Z,50.885612
2022-09-04T02:35:52.753Z,50.885609
2022-09-04T02:36:52.748Z,50.885563
2022-09-04T02:37:52.784Z,50.885681
2022-09-04T02:38:52.778Z,50.885689
2022-09-04T02:39:52.834Z,50.885456
2022-09-04T02:40:52.721Z,50.885574
2022-09-04T02:41:52.738Z,50.885548
2022-09-04T02:42:52.731Z,50.885559
2022-09-04T02:43:52.761Z,50.885548
2022-09-04T02:44:52.707Z,50.885696
2022-09-04T02:45:52.686Z,50.885666
2022-09-04T02:46:52.752Z,50.885643
2022-09-04T02:47:52.697Z,50.885590
2022-09-04T02:48:52.712Z,50.885635
2022-09-04T02:49:52.669Z,50.885643
2022-09-04T02:50:52.664Z,50.885616
2022-09-04T02:51:52.672Z,50.885651
2022-09-04T02:52:52.655Z,50.885681
2022-09-04T02:53:52.642Z,50.885677
2022-09-04T02:54:52.774Z,50.885513
2022-09-04T02:55:52.640Z,50.885536
2022-09-04T02:56:52.637Z,50.885536
2022-09-04T02:57:52.616Z,50.885597
2022-09-04T02:58:52.615Z,50.885563
2022-09-04T02:59:52.627Z,50.885662
2022-09-04T03:00:52.695Z,50.885616
2022-09-04T03:01:52.657Z,50.885590
2022-09-04T03:02:52.597Z,50.885609
2022-09-04T03:03:52.586Z,50.885582
2022-09-04T03:04:52.583Z,50.885609
2022-09-04T03:05:52.689Z,50.885536
2022-09-04T03:06:52.584Z,50.885571
2022-09-04T03:07:52.551Z,50.885525
2022-09-04T03:08:53.447Z,50.885506
2022-09-04T03:09:52.540Z,50.885628
2022-09-04T03:10:52.651Z,50.885574
2022-09-04T03:11:52.526Z,50.885529
2022-09-04T03:12:52.532Z,50.885654
2022-09-04T03:13:52.510Z,50.885437
2022-09-04T03:14:52.524Z,50.885529
2022-09-04T03:15:52.565Z,50.885666
2022-09-04T03:16:52.507Z,50.885468
2022-09-04T03:17:53.353Z,50.885670
2022-09-04T03:18:52.474Z,50.885521
2022-09-04T03:19:52.485Z,50.885612
2022-09-04T03:20:52.471Z,50.885571
2022-09-04T03:21:52.583Z,50.885597
2022-09-04T03:22:52.460Z,50.885593
2022-09-04T03:23:52.478Z,50.885578
2022-09-04T03:24:52.453Z,50.885616
2022-09-04T03:25:52.447Z,50.885601
2022-09-04T03:26:52.440Z,50.885563
2022-09-04T03:27:52.449Z,50.885513
2022-09-04T03:28:52.432Z,50.885513
2022-09-04T03:29:52.417Z,50.885654
2022-09-04T03:30:52.429Z,50.885658
2022-09-04T03:31:52.431Z,50.885647
2022-09-04T03:32:52.511Z,50.885616
2022-09-04T03:33:52.388Z,50.885563
2022-09-04T03:34:52.363Z,50.885529
2022-09-04T03:35:52.373Z,50.885601
2022-09-04T03:36:52.372Z,50.885639
2022-09-04T03:37:52.356Z,50.885464
2022-09-04T03:38:52.404Z,50.885593
2022-09-04T03:39:52.385Z,50.885666
2022-09-04T03:40:52.350Z,50.885773
2022-09-04T03:41:52.340Z,50.885521
2022-09-04T03:42:52.317Z,50.885548
2022-09-04T03:43:52.353Z,50.885620
2022-09-04T03:44:52.338Z,50.885582
2022-09-04T03:45:52.308Z,50.885620
2022-09-04T03:46:52.345Z,50.885563
2022-09-04T03:47:52.292Z,50.885593
2022-09-04T03:48:52.311Z,50.885635
2022-09-04T03:49:52.387Z,50.885605
2022-09-04T03:50:52.275Z,50.885605
2022-09-04T03:51:52.270Z,50.885605
2022-09-04T03:52:52.261Z,50.885559
2022-09-04T03:53:52.263Z,50.885551
2022-09-04T03:54:52.283Z,50.885563
2022-09-04T03:55:52.255Z,50.885597
2022-09-04T03:56:52.245Z,50.885578
2022-09-04T03:57:52.233Z,50.885593
2022-09-04T03:58:52.222Z,50.885555
2022-09-04T03:59:52.212Z,50.885571
2022-09-04T04:00:52.285Z,50.885651
2022-09-04T04:01:52.207Z,50.885620
2022-09-04T04:02:52.276Z,50.885628
2022-09-04T04:03:52.210Z,50.885635
2022-09-04T04:04:52.213Z,50.885635
2022-09-04T04:05:52.189Z,50.885643
2022-09-04T04:06:52.187Z,50.885605
2022-09-04T04:07:52.174Z,50.885532
2022-09-04T04:08:52.163Z,50.885517
2022-09-04T04:09:52.196Z,50.885559
2022-09-04T04:10:52.141Z,50.885548
2022-09-04T04:11:52.175Z,50.885506
2022-09-04T04:12:52.145Z,50.885529
2022-09-04T04:13:52.128Z,50.885571
2022-09-04T04:14:52.114Z,50.885586
2022-09-04T04:15:52.154Z,50.885593
2022-09-04T04:16:56.123Z,50.885582
2022-09-04T04:17:52.120Z,50.885555
2022-09-04T04:18:52.094Z,50.885517
2022-09-04T04:19:52.099Z,50.885536
2022-09-04T04:20:52.090Z,50.885605
2022-09-04T04:21:52.077Z,50.885559
2022-09-04T04:22:52.119Z,50.885563
2022-09-04T04:23:52.084Z,50.885609
2022-09-04T04:24:52.063Z,50.885635
2022-09-04T04:25:52.618Z,50.885612
2022-09-04T04:26:54.820Z,50.885605
2022-09-04T04:27:52.082Z,50.885601
2022-09-04T04:28:52.022Z,50.885609
2022-09-04T04:29:53.040Z,50.885590
2022-09-04T04:30:52.030Z,50.885578
2022-09-04T04:31:52.049Z,50.885670
2022-09-04T04:32:52.001Z,50.885651
2022-09-04T04:33:52.117Z,50.885609
2022-09-04T04:34:51.996Z,50.885685
2022-09-04T04:35:51.968Z,50.885620
2022-09-04T04:36:52.991Z,50.885666
2022-09-04T04:37:51.974Z,50.885597
2022-09-04T04:38:52.097Z,50.885571
2022-09-04T04:39:51.985Z,50.885498
2022-09-04T04:40:51.973Z,50.885582
2022-09-04T04:41:51.954Z,50.885609
2022-09-04T04:42:51.950Z,50.885620
2022-09-04T04:43:51.931Z,50.885586
2022-09-04T04:44:51.960Z,50.885559
2022-09-04T04:45:51.928Z,50.885624
2022-09-04T04:46:51.975Z,50.885666
2022-09-04T04:47:51.933Z,50.885586
2022-09-04T04:48:51.924Z,50.885586
2022-09-04T04:49:51.936Z,50.885612
2022-09-04T04:50:51.904Z,50.885563
2022-09-04T04:51:51.890Z,50.885582
2022-09-04T04:52:51.907Z,50.885578
2022-09-04T04:53:51.878Z,50.885674
2022-09-04T04:54:51.876Z,50.885605
2022-09-04T04:55:51.908Z,50.885624
2022-09-04T04:56:51.883Z,50.885574
2022-09-04T04:57:51.867Z,50.885647
2022-09-04T04:58:51.906Z,50.885540
2022-09-04T04:59:51.849Z,50.885521
2022-09-04T05:00:52.551Z,50.885605
2022-09-04T05:01:51.926Z,50.885468
2022-09-04T05:02:51.964Z,50.885563
2022-09-04T05:03:51.826Z,50.885548
2022-09-04T05:04:51.821Z,50.885563
2022-09-04T05:05:51.811Z,50.885590
2022-09-04T05:06:51.901Z,50.885578
2022-09-04T05:07:51.812Z,50.885677
2022-09-04T05:08:51.788Z,50.885662
2022-09-04T05:09:51.804Z,50.885670
2022-09-04T05:10:51.779Z,50.885624
2022-09-04T05:11:51.892Z,50.885666
2022-09-04T05:12:51.764Z,50.885727
2022-09-04T05:13:52.863Z,50.885788
2022-09-04T05:14:51.760Z,50.885761
2022-09-04T05:16:08.374Z,50.885746
2022-09-04T05:16:55.708Z,50.885639
2022-09-04T05:17:52.733Z,50.885609
2022-09-04T05:18:51.730Z,50.885532
2022-09-04T05:19:52.422Z,50.885677
2022-09-04T05:20:51.753Z,50.885727
2022-09-04T05:21:51.706Z,50.885651
2022-09-04T05:22:51.748Z,50.885593
2022-09-04T05:23:51.709Z,50.885551
2022-09-04T05:24:51.913Z,50.885658
2022-09-04T05:25:51.720Z,50.885696
2022-09-04T05:26:51.672Z,50.885548
2022-09-04T05:27:51.798Z,50.885571
2022-09-04T05:28:51.677Z,50.885677
2022-09-04T05:29:51.671Z,50.885658
2022-09-04T05:30:51.710Z,50.885559
2022-09-04T05:31:51.654Z,50.885708
2022-09-04T05:32:51.667Z,50.885811
2022-09-04T05:33:51.668Z,50.885750
2022-09-04T05:34:51.646Z,50.885792
2022-09-04T05:35:53.134Z,50.885719
2022-09-04T05:36:51.621Z,50.885658
2022-09-04T05:37:51.611Z,50.885658
2022-09-04T05:38:51.650Z,50.885746
2022-09-04T05:39:51.673Z,50.885628
2022-09-04T05:40:51.605Z,50.885601
2022-09-04T05:41:51.625Z,50.885612
2022-09-04T05:42:51.586Z,50.885616
2022-09-04T05:43:51.593Z,50.885521
2022-09-04T05:44:51.603Z,50.885509
2022-09-04T05:45:51.576Z,50.885605
2022-09-04T05:46:51.987Z,50.885605
2022-09-04T05:47:51.553Z,50.885643
2022-09-04T05:48:51.554Z,50.885647
2022-09-04T05:49:51.555Z,50.885597
2022-09-04T05:50:51.540Z,50.885468
2022-09-04T05:51:51.536Z,50.885429
2022-09-04T05:52:51.565Z,50.885334
2022-09-04T05:53:51.505Z,50.885429
2022-09-04T05:54:51.505Z,50.885471
2022-09-04T05:55:51.537Z,50.885593
2022-09-04T05:56:51.514Z,50.885532
2022-09-04T05:57:51.495Z,50.885559
2022-09-04T05:58:51.485Z,50.885559
2022-09-04T05:59:51.506Z,50.885651
2022-09-04T06:00:51.593Z,50.885647
2022-09-04T06:01:52.364Z,50.885601
2022-09-04T06:02:52.523Z,50.885571
2022-09-04T06:03:51.469Z,50.885593
2022-09-04T06:04:51.442Z,50.885632
2022-09-04T06:05:51.440Z,50.885605
2022-09-04T06:06:51.473Z,50.885582
2022-09-04T06:07:51.425Z,50.885601
2022-09-04T06:08:51.421Z,50.885532
2022-09-04T06:09:51.431Z,50.885612
2022-09-04T06:10:51.403Z,50.885609
2022-09-04T06:11:51.526Z,50.885601
2022-09-04T06:12:51.403Z,50.885647
2022-09-04T06:13:51.424Z,50.885628
2022-09-04T06:14:51.392Z,50.885551
2022-09-04T06:15:51.423Z,50.885529
2022-09-04T06:16:51.376Z,50.885578
2022-09-04T06:17:51.472Z,50.885643
2022-09-04T06:18:51.350Z,50.885616
2022-09-04T06:19:51.361Z,50.885704
2022-09-04T06:20:51.392Z,50.885670
2022-09-04T06:21:51.361Z,50.885586
2022-09-04T06:22:55.047Z,50.885605
2022-09-04T06:23:52.313Z,50.885628
2022-09-04T06:24:51.331Z,50.885643
2022-09-04T06:25:51.332Z,50.885586
2022-09-04T06:26:51.327Z,50.885639
2022-09-04T06:27:51.310Z,50.885601
2022-09-04T06:28:51.412Z,50.885601
2022-09-04T06:29:51.304Z,50.885563
2022-09-04T06:30:51.340Z,50.885544
2022-09-04T06:31:51.280Z,50.885681
2022-09-04T06:32:51.269Z,50.885780
2022-09-04T06:33:51.368Z,50.885674
2022-09-04T06:34:51.255Z,50.885696
2022-09-04T06:35:51.261Z,50.885635
2022-09-04T06:36:51.263Z,50.885727
2022-09-04T06:37:51.247Z,50.885700
2022-09-04T06:38:51.238Z,50.885635
2022-09-04T06:39:51.306Z,50.885696
2022-09-04T06:40:51.219Z,50.885746
2022-09-04T06:41:51.200Z,50.885723
2022-09-04T06:42:51.225Z,50.885654
2022-09-04T06:43:51.203Z,50.885605
2022-09-04T06:44:51.246Z,50.885670
2022-09-04T06:45:51.188Z,50.885704
2022-09-04T06:46:51.387Z,50.885651
2022-09-04T06:47:51.239Z,50.885616
2022-09-04T06:48:51.170Z,50.885590
2022-09-04T06:49:51.143Z,50.885647
2022-09-04T06:50:51.190Z,50.885612
2022-09-04T06:51:51.183Z,50.885620
2022-09-04T06:52:51.143Z,50.885715
2022-09-04T06:53:51.127Z,50.885593
2022-09-04T06:54:51.124Z,50.885689
2022-09-04T06:55:51.235Z,50.885693
2022-09-04T06:56:52.145Z,50.885643
2022-09-04T06:57:51.108Z,50.885578
2022-09-04T06:58:51.105Z,50.885601
2022-09-04T06:59:51.115Z,50.885670
2022-09-04T07:00:52.010Z,50.885666
2022-09-04T07:01:51.262Z,50.885643
2022-09-04T07:02:51.203Z,50.885685
2022-09-04T07:03:51.119Z,50.885689
2022-09-04T07:04:51.084Z,50.885670
2022-09-04T07:05:51.094Z,50.885639
2022-09-04T07:06:51.084Z,50.885708
2022-09-04T07:07:51.063Z,50.885559
2022-09-04T07:08:51.059Z,50.885666
2022-09-04T07:09:51.038Z,50.885658
2022-09-04T07:10:51.029Z,50.885670
2022-09-04T07:11:51.025Z,50.885647
2022-09-04T07:12:51.129Z,50.885620
2022-09-04T07:13:51.027Z,50.885647
2022-09-04T07:14:51.013Z,50.885662
2022-09-04T07:15:51.051Z,50.885651
2022-09-04T07:16:51.001Z,50.885666
2022-09-04T07:17:51.803Z,50.885643
2022-09-04T07:18:50.983Z,50.885674
2022-09-04T07:19:50.988Z,50.885693
2022-09-04T07:20:50.979Z,50.885620
2022-09-04T07:21:50.971Z,50.885571
2022-09-04T07:22:50.966Z,50.885635
2022-09-04T07:23:50.969Z,50.885441
2022-09-04T07:24:50.950Z,50.885529
2022-09-04T07:25:50.938Z,50.885574
2022-09-04T07:26:50.932Z,50.885632
2022-09-04T07:27:50.940Z,50.885620
2022-09-04T07:28:50.928Z,50.885765
2022-09-04T07:29:50.918Z,50.885727
2022-09-04T07:30:50.916Z,50.885681
2022-09-04T07:31:50.958Z,50.885517
2022-09-04T07:32:50.932Z,50.885502
2022-09-04T07:33:50.903Z,50.885620
2022-09-04T07:34:50.888Z,50.885517
2022-09-04T07:35:50.903Z,50.885616
2022-09-04T07:36:50.923Z,50.885662
2022-09-04T07:37:50.886Z,50.885731
2022-09-04T07:38:51.273Z,50.885735
2022-09-04T07:39:50.931Z,50.885754
2022-09-04T07:40:50.864Z,50.885643
2022-09-04T07:41:50.879Z,50.885559
2022-09-04T07:42:50.853Z,50.885490
2022-09-04T07:43:54.681Z,50.885571
2022-09-04T07:44:52.877Z,50.885521
2022-09-04T07:45:51.031Z,50.885639
2022-09-04T07:46:50.840Z,50.885700
2022-09-04T07:47:50.857Z,50.885643
2022-09-04T07:48:50.895Z,50.885567
2022-09-04T07:49:50.969Z,50.885555
2022-09-04T07:50:50.883Z,50.885536
2022-09-04T07:51:50.877Z,50.885429
2022-09-04T07:52:50.910Z,50.885502
2022-09-04T07:53:50.918Z,50.885647
2022-09-04T07:54:50.841Z,50.885738
2022-09-04T07:55:50.946Z,50.885628
2022-09-04T07:56:51.529Z,50.885597
2022-09-04T07:57:50.812Z,50.885563
2022-09-04T07:58:50.809Z,50.885620
2022-09-04T07:59:50.774Z,50.885803
2022-09-04T08:00:50.765Z,50.885605
2022-09-04T08:01:50.788Z,50.885624
2022-09-04T08:02:50.758Z,50.885559
2022-09-04T08:03:54.389Z,50.885635
2022-09-04T08:04:50.785Z,50.885658
2022-09-04T08:05:50.722Z,50.885624
2022-09-04T08:06:50.728Z,50.885597
2022-09-04T08:07:50.735Z,50.885578
2022-09-04T08:08:50.711Z,50.885551
2022-09-04T08:09:50.708Z,50.885593
2022-09-04T08:10:50.701Z,50.885593
2022-09-04T08:11:50.710Z,50.885567
2022-09-04T08:12:50.917Z,50.885475
2022-09-04T08:13:51.700Z,50.885368
2022-09-04T08:14:50.665Z,50.885574
2022-09-04T08:15:50.721Z,50.885651
2022-09-04T08:16:50.659Z,50.885555
2022-09-04T08:17:50.667Z,50.885571
2022-09-04T08:18:50.668Z,50.885647
2022-09-04T08:19:50.651Z,50.885578
2022-09-04T08:20:50.644Z,50.885586
2022-09-04T08:21:50.632Z,50.885567
2022-09-04T08:22:50.645Z,50.885605
2022-09-04T08:23:50.646Z,50.885647
2022-09-04T08:24:50.627Z,50.885670
2022-09-04T08:25:50.601Z,50.885635
2022-09-04T08:26:50.616Z,50.885521
2022-09-04T08:27:50.619Z,50.885548
2022-09-04T08:28:50.606Z,50.885571
2022-09-04T08:29:50.602Z,50.885620
2022-09-04T08:30:50.694Z,50.885628
2022-09-04T08:31:50.602Z,50.885712
2022-09-04T08:32:50.590Z,50.885719
2022-09-04T08:33:50.564Z,50.885746
2022-09-04T08:34:50.564Z,50.885738
2022-09-04T08:35:50.552Z,50.885635
2022-09-04T08:36:50.555Z,50.885628
2022-09-04T08:37:50.646Z,50.885662
2022-09-04T08:38:50.561Z,50.885609
2022-09-04T08:39:50.561Z,50.885639
2022-09-04T08:40:52.271Z,50.885597
2022-09-04T08:41:50.546Z,50.885616
2022-09-04T08:42:50.518Z,50.885735
2022-09-04T08:43:50.523Z,50.885715
2022-09-04T08:44:50.512Z,50.885498
2022-09-04T08:45:50.624Z,50.885422
2022-09-04T08:46:50.556Z,50.885414
2022-09-04T08:47:50.495Z,50.885490
2022-09-04T08:48:50.556Z,50.885464
2022-09-04T08:49:50.478Z,50.885517
2022-09-04T08:50:50.479Z,50.885544
2022-09-04T08:51:50.487Z,50.885586
2022-09-04T08:52:50.475Z,50.885624
2022-09-04T08:53:50.462Z,50.885551
2022-09-04T08:54:50.520Z,50.885681
2022-09-04T08:55:50.454Z,50.885647
2022-09-04T08:56:50.459Z,50.885662
2022-09-04T08:57:50.469Z,50.885563
2022-09-04T08:58:50.434Z,50.885590
2022-09-04T08:59:50.434Z,50.885651
2022-09-04T09:00:50.424Z,50.885662
2022-09-04T09:01:50.470Z,50.885616
2022-09-04T09:02:50.432Z,50.885494
2022-09-04T09:03:50.419Z,50.885441
2022-09-04T09:04:50.404Z,50.885567
2022-09-04T09:05:50.418Z,50.885597
2022-09-04T09:06:50.381Z,50.885662
2022-09-04T09:07:50.385Z,50.885567
2022-09-04T09:08:50.389Z,50.885441
2022-09-04T09:09:50.371Z,50.885418
2022-09-04T09:10:50.397Z,50.885551
2022-09-04T09:11:50.369Z,50.885628
2022-09-04T09:12:50.361Z,50.885639
2022-09-04T09:13:50.351Z,50.885643
2022-09-04T09:14:50.343Z,50.885540
2022-09-04T09:15:50.342Z,50.885460
2022-09-04T09:16:50.508Z,50.885426
2022-09-04T09:17:50.350Z,50.885551
2022-09-04T09:18:50.326Z,50.885529
2022-09-04T09:19:50.324Z,50.885548
2022-09-04T09:20:50.328Z,50.885426
2022-09-04T09:21:50.329Z,50.885487
2022-09-04T09:22:50.292Z,50.885574
2022-09-04T09:23:50.308Z,50.885651
2022-09-04T09:24:50.297Z,50.885639
2022-09-04T09:25:50.284Z,50.885590
2022-09-04T09:26:50.283Z,50.885521
2022-09-04T09:27:50.385Z,50.885635
2022-09-04T09:28:50.281Z,50.885571
2022-09-04T09:29:50.276Z,50.885487
2022-09-04T09:30:50.305Z,50.885616
2022-09-04T09:31:50.263Z,50.885590
2022-09-04T09:32:50.275Z,50.885563
2022-09-04T09:33:50.245Z,50.885529
2022-09-04T09:34:50.241Z,50.885567
2022-09-04T09:35:50.246Z,50.885506
2022-09-04T09:36:50.240Z,50.885487
2022-09-04T09:37:50.232Z,50.885468
2022-09-04T09:38:50.246Z,50.885487
2022-09-04T09:39:50.310Z,50.885532
2022-09-04T09:40:50.232Z,50.885494
2022-09-04T09:41:50.254Z,50.885468
2022-09-04T09:42:50.215Z,50.885525
2022-09-04T09:43:50.320Z,50.885597
2022-09-04T09:44:50.211Z,50.885612
2022-09-04T09:45:50.251Z,50.885582
2022-09-04T09:46:50.189Z,50.885605
2022-09-04T09:47:50.205Z,50.885517
2022-09-04T09:48:50.199Z,50.885441
2022-09-04T09:49:50.196Z,50.885475
2022-09-04T09:50:50.181Z,50.885506
2022-09-04T09:51:50.161Z,50.885448
2022-09-04T09:52:50.175Z,50.885460
2022-09-04T09:53:50.162Z,50.885334
2022-09-04T09:54:50.270Z,50.885338
2022-09-04T09:55:50.153Z,50.885303
2022-09-04T09:56:53.678Z,50.885414
2022-09-04T09:57:50.149Z,50.885307
2022-09-04T09:58:50.134Z,50.885498
2022-09-04T09:59:50.120Z,50.885338
2022-09-04T10:00:50.173Z,50.885147
2022-09-04T10:01:50.107Z,50.885380
2022-09-04T10:02:50.236Z,50.885410
2022-09-04T10:03:50.107Z,50.885452
2022-09-04T10:04:50.115Z,50.885441
2022-09-04T10:05:50.130Z,50.885448
2022-09-04T10:06:50.107Z,50.885544
2022-09-04T10:07:50.085Z,50.885502
2022-09-04T10:08:50.082Z,50.885448
2022-09-04T10:09:50.085Z,50.885548
2022-09-04T10:10:50.073Z,50.885433
2022-09-04T10:11:51.204Z,50.885494
2022-09-04T10:12:50.080Z,50.885456
2022-09-04T10:13:50.062Z,50.885456
2022-09-04T10:14:50.533Z,50.885506
2022-09-04T10:15:50.062Z,50.885509
2022-09-04T10:16:50.108Z,50.885509
2022-09-04T10:17:50.066Z,50.885490
2022-09-04T10:18:50.050Z,50.885509
2022-09-04T10:19:50.052Z,50.885536
2022-09-04T10:20:50.023Z,50.885376
2022-09-04T10:21:50.017Z,50.885471
2022-09-04T10:23:22.119Z,50.885456
2022-09-04T10:23:50.023Z,50.885437
2022-09-04T10:24:50.005Z,50.885368
2022-09-04T10:25:49.997Z,50.885494
2022-09-04T10:26:49.982Z,50.885521
2022-09-04T10:27:49.979Z,50.885517
2022-09-04T10:28:50.080Z,50.885490
2022-09-04T10:29:49.975Z,50.885601
2022-09-04T10:30:50.053Z,50.885536
2022-09-04T10:31:49.946Z,50.885502
2022-09-04T10:32:49.947Z,50.885517
2022-09-04T10:33:50.072Z,50.885525
2022-09-04T10:34:49.952Z,50.885521
2022-09-04T10:35:49.941Z,50.885563
2022-09-04T10:36:49.934Z,50.885506
2022-09-04T10:37:49.922Z,50.885620
2022-09-04T10:38:49.935Z,50.885578
2022-09-04T10:39:49.973Z,50.885605
2022-09-04T10:40:51.548Z,50.885612
2022-09-04T10:41:49.903Z,50.885593
2022-09-04T10:42:49.919Z,50.885433
2022-09-04T10:43:49.897Z,50.885590
2022-09-04T10:44:50.001Z,50.885662
2022-09-04T10:45:49.953Z,50.885597
2022-09-04T10:46:49.865Z,50.885590
2022-09-04T10:47:49.888Z,50.885548
2022-09-04T10:48:49.864Z,50.885490
2022-09-04T10:49:49.849Z,50.885670
2022-09-04T10:50:49.997Z,50.885330
2022-09-04T10:51:49.854Z,50.885262
2022-09-04T10:52:49.841Z,50.885403
2022-09-04T10:53:49.850Z,50.885464
2022-09-04T10:54:49.840Z,50.885479
2022-09-04T10:55:49.938Z,50.885612
2022-09-04T10:56:49.817Z,50.885529
2022-09-04T10:57:49.815Z,50.885700
2022-09-04T10:58:49.816Z,50.885384
2022-09-04T10:59:49.803Z,50.885357
2022-09-04T11:00:49.851Z,50.885551
2022-09-04T11:01:49.843Z,50.885620
2022-09-04T11:02:49.795Z,50.885597
2022-09-04T11:03:49.799Z,50.885403
2022-09-04T11:04:49.782Z,50.885582
2022-09-04T11:05:49.776Z,50.885609
2022-09-04T11:06:49.871Z,50.885540
2022-09-04T11:07:49.779Z,50.885571
2022-09-04T11:08:49.751Z,50.885571
2022-09-04T11:09:49.769Z,50.885555
2022-09-04T11:10:49.747Z,50.885513
2022-09-04T11:11:49.750Z,50.885571
2022-09-04T11:12:49.772Z,50.885532
2022-09-04T11:13:51.705Z,50.885635
2022-09-04T11:14:50.717Z,50.885635
2022-09-04T11:15:49.735Z,50.885609
2022-09-04T11:16:50.621Z,50.885452
2022-09-04T11:17:49.810Z,50.885628
2022-09-04T11:18:49.704Z,50.885674
2022-09-04T11:19:49.699Z,50.885555
2022-09-04T11:20:49.681Z,50.885593
2022-09-04T11:21:49.687Z,50.885529
2022-09-04T11:22:49.688Z,50.885693
2022-09-04T11:23:49.707Z,50.885582
2022-09-04T11:24:49.660Z,50.885620